sensor_id;sensor_type;location;lat;lon;timestamp;pressure;altitude;pressure_sealevel;temperature;humidity
61123;BME280;47008;47.542;19.090;2023-09-19T03:22:45;99836.56;;;21.40;92.94
61123;BME280;47008;47.542;19.090;2023-09-19T03:25:50;99836.56;;;21.40;92.94
61123;BME280;47008;47.542;19.090;2023-09-19T03:28:54;99835.16;;;20.92;94.91
61123;BME280;47008;47.542;19.090;2023-09-19T03:31:57;99835.16;;;20.97;94.58
61123;BME280;47008;47.542;19.090;2023-09-19T03:35:00;99840.56;;;20.97;94.18
61123;BME280;47008;47.542;19.090;2023-09-19T03:38:04;99841.63;;;20.96;94.40
61123;BME280;47008;47.542;19.090;2023-09-19T03:41:07;99842.44;;;20.96;94.84
61123;BME280;47008;47.542;19.090;2023-09-19T03:44:10;99842.72;;;20.95;95.34
61123;BME280;47008;47.542;19.090;2023-09-19T03:47:13;99850.78;;;20.95;95.64
61123;BME280;47008;47.542;19.090;2023-09-19T03:50:17;99837.59;;;20.93;96.09
61123;BME280;47008;47.542;19.090;2023-09-19T03:53:21;99840.28;;;20.93;96.50
61123;BME280;47008;47.542;19.090;2023-09-19T03:56:24;99848.09;;;21.00;95.62
61123;BME280;47008;47.542;19.090;2023-09-19T03:59:27;99845.41;;;21.05;95.72
61123;BME280;47008;47.542;19.090;2023-09-19T04:02:32;99844.88;;;21.08;95.94
61123;BME280;47008;47.542;19.090;2023-09-19T04:05:36;99847.28;;;21.10;95.73
61123;BME280;47008;47.542;19.090;2023-09-19T04:08:39;99862.66;;;21.14;97.17
61123;BME280;47008;47.542;19.090;2023-09-19T04:11:42;99861.84;;;21.14;100.00
61123;BME280;47008;47.542;19.090;2023-09-19T04:14:46;99857.00;;;21.16;99.39
61123;BME280;47008;47.542;19.090;2023-09-19T04:17:50;99863.47;;;21.15;98.71
61123;BME280;47008;47.542;19.090;2023-09-19T04:20:54;99859.44;;;21.17;98.46
61123;BME280;47008;47.542;19.090;2023-09-19T04:23:57;99861.63;;;21.20;98.64
61123;BME280;47008;47.542;19.090;2023-09-19T04:27:00;99861.63;;;21.20;98.02
61123;BME280;47008;47.542;19.090;2023-09-19T04:30:06;99864.31;;;21.20;98.04
61123;BME280;47008;47.542;19.090;2023-09-19T04:33:13;99872.66;;;21.19;97.93
61123;BME280;47008;47.542;19.090;2023-09-19T04:36:18;99870.75;;;21.19;97.79
61123;BME280;47008;47.542;19.090;2023-09-19T04:39:37;99873.72;;;21.18;96.17
61123;BME280;47008;47.542;19.090;2023-09-19T04:42:40;99876.41;;;21.13;96.81
61123;BME280;47008;47.542;19.090;2023-09-19T04:45:44;99890.69;;;21.13;94.78
61123;BME280;47008;47.542;19.090;2023-09-19T04:48:47;99889.59;;;21.14;95.18
61123;BME280;47008;47.542;19.090;2023-09-19T04:51:50;99890.69;;;21.13;93.93
61123;BME280;47008;47.542;19.090;2023-09-19T04:54:53;99896.91;;;21.19;94.17
61123;BME280;47008;47.542;19.090;2023-09-19T04:57:56;99896.66;;;21.20;93.34
61123;BME280;47008;47.542;19.090;2023-09-19T05:00:59;99901.19;;;21.15;93.28
61123;BME280;47008;47.542;19.090;2023-09-19T05:04:06;99907.66;;;21.09;93.77
61123;BME280;47008;47.542;19.090;2023-09-19T05:07:09;99908.75;;;21.13;92.63
61123;BME280;47008;47.542;19.090;2023-09-19T05:10:13;99902.81;;;21.11;93.60
61123;BME280;47008;47.542;19.090;2023-09-19T05:13:17;99906.56;;;20.99;93.86
61123;BME280;47008;47.542;19.090;2023-09-19T05:16:20;99919.22;;;20.94;93.81
61123;BME280;47008;47.542;19.090;2023-09-19T05:19:23;99921.88;;;20.89;95.66
61123;BME280;47008;47.542;19.090;2023-09-19T05:22:29;99932.03;;;20.66;96.63
61123;BME280;47008;47.542;19.090;2023-09-19T05:25:32;99946.00;;;20.53;98.39
61123;BME280;47008;47.542;19.090;2023-09-19T05:28:40;99944.56;;;20.41;99.50
61123;BME280;47008;47.542;19.090;2023-09-19T05:31:43;99950.09;;;20.24;100.00
61123;BME280;47008;47.542;19.090;2023-09-19T05:34:46;99953.63;;;20.24;100.00
61123;BME280;47008;47.542;19.090;2023-09-19T05:37:51;99955.75;;;20.22;100.00
61123;BME280;47008;47.542;19.090;2023-09-19T05:40:53;99960.47;;;20.05;100.00
